Detall de PIREP

Printer-friendly versionPDF version

[2013/11/03 07:26:00]
Flight IATA:CT3252
Pilot Number:012
Company ICAO:CAT
Aircraft Type:B738/F
PAX:160
Departing Airport: LEPA
Destination Airport: EPWA
Alternate Airport:EPKK
Online: VATSIM
Route:MEROS UN853 LUMAS UM985 MEBAN M985 JED M866 LOGDA
Flight Level:F360
No Slew and time accel
No pause
Crash detect
Detect pilot in Cockpit between each 30 and 45 minutes
07:26 Zero fuel Weight: 122971 Lbs, Fuel Weight: 21227 Lbs
07:26 VATSIM:LEPA 030700Z 00000KT 9999 FEW018 13/12 Q1016 NOSIG
07:26 VATSIM:EPWA 030700Z 18007KT 9999 SCT026 12/10 Q1003 NOSIG
07:26 VOICE CATALONIAN
07:28 Parking Brakes off
07:32 Take-off
07:32 Take off Weight: 143562 Lbs
07:32 Wind: 000º @ 000 Knots Heading: 238º
07:32 POS N39º 33´ 10´´ E002º 43´ 21´´
07:32 Gear Up: 172 Knots
07:32 Flaps:2 at 172 Knots
07:32 Flaps:1 at 202 Knots
07:32 Flaps:0 at 207 Knots
07:47 Wind:270º@049 Knots Heading:025º Ground Speed: 498 Knots Altitude 30246 ft
07:51 TOC
07:51 Fuel Weight: 16705 Lb
08:02 Wind:255º@093 Knots Heading: 032º Ground Speed: 530 Knots Altitude 36040 ft
08:17 Wind:254º@099 Knots Heading: 049º Ground Speed: 551 Knots Altitude 35944 ft
08:32 Wind:250º@044 Knots Heading: 027º Ground Speed: 486 Knots Altitude 35892 ft
08:47 Wind:251º@083 Knots Heading: 060º Ground Speed: 542 Knots Altitude 35875 ft
09:02 Wind:250º@063 Knots Heading: 074º Ground Speed: 518 Knots Altitude 35807 ft
09:17 Wind:251º@064 Knots Heading: 071º Ground Speed: 520 Knots Altitude 35784 ft
09:32 Wind:262º@071 Knots Heading: 009º Ground Speed: 483 Knots Altitude 35797 ft
09:36 TOD
09:36 Fuel Weight: 7344 Lb
09:47 Wind:263º@034 Knots Heading: 019º Ground Speed: 373 Knots Altitude 11332 ft
09:48 Flaps:1 at 239 Knots
09:50 Flaps:2 at 211 Knots
09:54 Flaps:3 at 210 Knots
09:55 Flaps:4at 186 Knots
09:55 Flaps:5 at 187 Knots
09:56 Flaps:6 at 185 Knots
09:56 Flaps:7 at 167 Knots
09:59 Gear Down: 142 Knots
09:59 TouchDown:Rate -159 ft/min Speed: 125 Knots
10:00 VATSIM:EPWA 030930Z 21009KT 170V230 9999 FEW036 14/11 Q1003 NOSIG
10:00 Land
10:00 Wind:201º@009 Knots
10:00 Heading: 331º
10:00 Flight Duration: 02:28
10:00 Landing Weight: 129258 Lbs
10:00 POS N52º 09´ 44´´ E020º 58´ 12´´
10:02 Parking brakes on
10:02 Block to Block Duration: 02:34
10:02 Final Fuel: 6148 Lbls
10:02 Spent Fuel: 15079 Lbls
10:02 Flight Length: 1170 NM
10:02 TOD Land Length: 124 NM

Exportar CSV

Powered by Drupal - Modified by Danger4k